Time;durP1;ratioP1;P1;durP2;ratioP2;P2;SDS_P1;SDS_P2;PMS_P1;PMS_P2;Temp;Humidity;BMP_temperature;BMP_pressure;BME280_temperature;BME280_humidity;BME280_pressure;Samples;Min_cycle;Max_cycle;Signal;HPM_P1;HPM_P2
2023/12/11 00:01:38;;;;;;;1.60;1.10;;;21.50;71.20;;;;;;4983633;28;21084;-67
2023/12/11 00:04:05;;;;;;;1.43;1.00;;;21.40;70.90;;;;;;4985054;28;20472;-67
2023/12/11 00:06:31;;;;;;;1.90;1.00;;;21.40;71.00;;;;;;4983771;28;20484;-66
2023/12/11 00:08:59;;;;;;;1.30;0.85;;;21.40;71.00;;;;;;4990597;28;20847;-67
2023/12/11 00:11:26;;;;;;;2.30;1.10;;;21.40;71.10;;;;;;4992616;28;20489;-68
2023/12/11 00:13:53;;;;;;;1.65;1.00;;;21.40;71.00;;;;;;4982860;28;20471;-66
2023/12/11 00:16:19;;;;;;;1.45;1.23;;;21.40;71.20;;;;;;4986406;28;20894;-66
2023/12/11 00:18:48;;;;;;;1.80;1.00;;;21.30;71.00;;;;;;4982982;28;20680;-69
2023/12/11 00:21:15;;;;;;;1.35;1.05;;;21.30;71.10;;;;;;4981988;28;20223;-71
2023/12/11 00:23:42;;;;;;;1.20;0.90;;;21.30;71.30;;;;;;4986195;28;20211;-68
2023/12/11 00:26:10;;;;;;;1.20;0.73;;;21.30;71.30;;;;;;4988647;28;20220;-66
2023/12/11 00:28:37;;;;;;;2.85;0.93;;;21.30;71.40;;;;;;4986894;28;20696;-67
2023/12/11 00:31:07;;;;;;;2.60;0.90;;;21.30;71.30;;;;;;4986249;28;20196;-68
2023/12/11 00:33:34;;;;;;;2.13;1.30;;;21.30;72.10;;;;;;4991461;28;20510;-68
2023/12/11 00:36:00;;;;;;;1.52;1.00;;;21.20;71.20;;;;;;4985996;28;20467;-70
2023/12/11 00:38:27;;;;;;;1.30;1.17;;;21.20;71.20;;;;;;4987481;28;20197;-66
2023/12/11 00:40:54;;;;;;;1.77;1.20;;;21.20;71.20;;;;;;4980471;28;20463;-68
2023/12/11 00:43:22;;;;;;;1.30;1.03;;;21.20;71.20;;;;;;4981643;28;20209;-69
2023/12/11 00:45:48;;;;;;;1.63;1.13;;;21.20;71.20;;;;;;4983506;28;20495;-69
2023/12/11 00:48:15;;;;;;;1.30;0.90;;;21.20;71.20;;;;;;4981309;28;20502;-69
2023/12/11 00:50:42;;;;;;;1.87;0.97;;;21.20;71.20;;;;;;4978349;28;21106;-68
2023/12/11 00:53:08;;;;;;;1.45;0.90;;;21.20;71.30;;;;;;4983592;28;20457;-70
2023/12/11 00:55:35;;;;;;;1.40;0.80;;;21.10;71.20;;;;;;4984443;28;20198;-68
2023/12/11 00:58:02;;;;;;;1.60;1.20;;;21.10;71.10;;;;;;4983469;28;20469;-66
2023/12/11 01:00:30;;;;;;;1.30;1.00;;;21.10;71.20;;;;;;4979818;28;20204;-65
2023/12/11 01:02:57;;;;;;;1.42;0.90;;;21.10;71.10;;;;;;4985334;28;20210;-68
2023/12/11 01:05:23;;;;;;;1.90;1.10;;;21.10;71.20;;;;;;4985409;28;20220;-67
2023/12/11 01:07:51;;;;;;;2.00;0.95;;;21.10;71.20;;;;;;4986135;28;20665;-69
2023/12/11 01:10:18;;;;;;;1.38;1.10;;;21.10;71.20;;;;;;4982452;28;20197;-68
2023/12/11 01:12:44;;;;;;;1.92;0.90;;;21.00;71.20;;;;;;4986390;28;20688;-66
2023/12/11 01:15:11;;;;;;;1.20;1.00;;;21.10;71.30;;;;;;4988675;28;20586;-65
2023/12/11 01:17:39;;;;;;;1.53;0.97;;;21.00;71.20;;;;;;4985021;28;20978;-65
2023/12/11 01:20:07;;;;;;;1.35;0.82;;;21.00;71.10;;;;;;4985504;28;20460;-65
2023/12/11 01:22:33;;;;;;;1.27;0.93;;;21.00;71.30;;;;;;4985365;28;20207;-68
2023/12/11 01:25:02;;;;;;;1.95;1.10;;;21.00;71.20;;;;;;4988640;28;20220;-67
2023/12/11 01:27:29;;;;;;;1.63;0.90;;;21.00;71.20;;;;;;4980083;28;20998;-64
2023/12/11 01:29:56;;;;;;;2.53;1.13;;;21.00;71.20;;;;;;4983580;28;20468;-68
2023/12/11 01:32:23;;;;;;;1.60;1.00;;;21.00;71.00;;;;;;4985373;28;21811;-69
2023/12/11 01:34:51;;;;;;;1.30;0.90;;;21.00;71.00;;;;;;4983796;28;20191;-70
2023/12/11 01:37:19;;;;;;;2.22;1.00;;;21.00;71.10;;;;;;4985918;28;20486;-71
2023/12/11 01:39:45;;;;;;;2.05;1.00;;;21.00;71.00;;;;;;4987267;28;20204;-66
2023/12/11 01:42:12;;;;;;;1.52;0.80;;;20.90;71.00;;;;;;4986359;28;20204;-65
2023/12/11 01:44:39;;;;;;;1.40;0.80;;;20.90;71.10;;;;;;4986017;28;20229;-69
2023/12/11 01:47:06;;;;;;;1.48;0.90;;;20.90;70.90;;;;;;4985203;28;20248;-69
2023/12/11 01:49:33;;;;;;;1.30;0.95;;;21.00;71.10;;;;;;4990736;28;20214;-69
2023/12/11 01:52:01;;;;;;;1.60;0.90;;;20.90;71.10;;;;;;4987912;28;21023;-65
2023/12/11 01:54:28;;;;;;;2.05;1.00;;;20.90;71.10;;;;;;4989571;28;20580;-69
2023/12/11 01:56:55;;;;;;;1.90;0.70;;;20.90;71.10;;;;;;4989443;28;20204;-67
2023/12/11 01:59:22;;;;;;;1.33;0.80;;;20.90;71.40;;;;;;4986698;28;20211;-67
2023/12/11 02:01:50;;;;;;;1.10;0.70;;;20.90;71.50;;;;;;4989722;28;20207;-66
2023/12/11 02:04:17;;;;;;;1.30;0.90;;;20.80;71.40;;;;;;4991138;28;20208;-68
2023/12/11 02:06:43;;;;;;;1.20;0.80;;;20.80;71.50;;;;;;4990417;28;20903;-69
2023/12/11 02:09:12;;;;;;;1.40;0.90;;;20.80;71.40;;;;;;4993004;28;21096;-66
2023/12/11 02:11:38;;;;;;;2.15;1.00;;;20.80;71.20;;;;;;4987948;28;20190;-65
2023/12/11 02:14:05;;;;;;;1.10;0.80;;;20.80;71.20;;;;;;4985933;28;20203;-64
2023/12/11 02:16:32;;;;;;;1.05;0.80;;;20.80;71.30;;;;;;4986076;28;20701;-69
2023/12/11 02:18:59;;;;;;;1.20;0.80;;;20.80;71.20;;;;;;4989576;28;20288;-66
2023/12/11 02:21:25;;;;;;;1.30;0.98;;;20.80;71.20;;;;;;4988750;28;20197;-69
2023/12/11 02:24:00;;;;;;;1.40;0.90;;;20.80;71.30;;;;;;4985710;28;20201;-69
2023/12/11 02:26:28;;;;;;;2.17;0.80;;;20.80;71.20;;;;;;4984317;28;20226;-69
2023/12/11 02:28:54;;;;;;;1.52;1.00;;;20.80;71.20;;;;;;4986531;28;20216;-67
2023/12/11 02:31:21;;;;;;;1.63;0.85;;;20.80;71.20;;;;;;4983864;28;20220;-66
2023/12/11 02:33:48;;;;;;;1.20;0.88;;;20.80;72.20;;;;;;4983343;28;20206;-69
2023/12/11 02:36:15;;;;;;;1.00;0.80;;;20.70;72.00;;;;;;4984083;28;20768;-67
2023/12/11 02:38:41;;;;;;;2.10;0.80;;;20.80;71.20;;;;;;4979482;28;20215;-68
2023/12/11 02:41:08;;;;;;;1.60;0.90;;;20.70;71.20;;;;;;4984901;28;20681;-65
2023/12/11 02:43:36;;;;;;;1.58;1.30;;;20.70;71.20;;;;;;4986590;28;20201;-66
2023/12/11 02:46:03;;;;;;;1.30;0.80;;;20.70;71.10;;;;;;4984079;28;20573;-67
2023/12/11 02:48:30;;;;;;;2.75;1.15;;;20.70;71.80;;;;;;4987327;28;20298;-68
2023/12/11 02:50:57;;;;;;;1.17;0.97;;;20.70;71.20;;;;;;4986844;28;20211;-66
2023/12/11 02:53:24;;;;;;;2.85;1.10;;;20.70;71.20;;;;;;4983115;28;20459;-65
2023/12/11 02:55:50;;;;;;;1.20;0.90;;;20.70;71.20;;;;;;4981973;28;20588;-69
2023/12/11 02:58:17;;;;;;;1.50;0.90;;;20.70;71.60;;;;;;4984172;28;20223;-65
2023/12/11 03:00:45;;;;;;;1.30;0.80;;;20.60;71.40;;;;;;4982759;28;20197;-67
2023/12/11 03:03:12;;;;;;;1.20;0.90;;;20.70;71.50;;;;;;4983967;28;20240;-66
2023/12/11 03:05:38;;;;;;;1.58;0.90;;;20.60;71.50;;;;;;4984157;28;20708;-69
2023/12/11 03:08:06;;;;;;;1.10;0.80;;;20.60;71.40;;;;;;4980843;28;20219;-67
2023/12/11 03:10:32;;;;;;;3.45;0.80;;;20.60;71.30;;;;;;4983914;28;20201;-68
2023/12/11 03:12:59;;;;;;;1.20;0.90;;;20.60;71.20;;;;;;4984168;28;20201;-67
2023/12/11 03:15:26;;;;;;;1.10;0.90;;;20.60;71.40;;;;;;4984077;28;20213;-69
2023/12/11 03:17:54;;;;;;;1.10;0.90;;;20.60;71.30;;;;;;4981634;28;20764;-69
2023/12/11 03:20:21;;;;;;;1.35;1.08;;;20.60;71.40;;;;;;4988161;28;20201;-69
2023/12/11 03:22:48;;;;;;;1.00;0.77;;;20.60;71.40;;;;;;4987503;28;20646;-69
2023/12/11 03:25:14;;;;;;;1.08;0.75;;;20.60;71.30;;;;;;4986816;28;20205;-68
2023/12/11 03:27:41;;;;;;;1.25;0.80;;;20.60;71.30;;;;;;4987152;28;20239;-63
2023/12/11 03:30:08;;;;;;;1.45;1.00;;;20.60;71.20;;;;;;4988191;28;20193;-69
2023/12/11 03:32:35;;;;;;;1.30;0.80;;;20.60;71.20;;;;;;4985818;28;20199;-68
2023/12/11 03:35:04;;;;;;;1.77;1.15;;;20.60;71.20;;;;;;4986612;28;20212;-69
2023/12/11 03:37:30;;;;;;;2.47;1.40;;;20.60;71.40;;;;;;4988504;28;20200;-69
2023/12/11 03:39:57;;;;;;;1.30;1.00;;;20.60;71.30;;;;;;4986052;28;20201;-68
2023/12/11 03:42:24;;;;;;;1.10;0.80;;;20.60;71.30;;;;;;4984300;28;20895;-68
2023/12/11 03:44:50;;;;;;;1.20;0.90;;;20.50;71.40;;;;;;4984742;28;20212;-68
2023/12/11 03:47:17;;;;;;;1.30;0.80;;;20.50;71.30;;;;;;4988535;28;20224;-67
2023/12/11 03:49:44;;;;;;;1.00;0.70;;;20.50;71.40;;;;;;4986080;28;20359;-64
2023/12/11 03:52:12;;;;;;;1.20;0.85;;;20.50;71.40;;;;;;4987881;28;20193;-67
2023/12/11 03:54:39;;;;;;;1.35;0.88;;;20.50;71.30;;;;;;4985231;28;20227;-69
2023/12/11 03:57:05;;;;;;;1.02;0.75;;;20.50;71.40;;;;;;4987669;28;20200;-66
2023/12/11 03:59:33;;;;;;;1.30;1.02;;;20.50;71.50;;;;;;4988750;28;20428;-69
2023/12/11 04:02:00;;;;;;;1.40;0.90;;;20.50;71.50;;;;;;4989572;28;20216;-64
2023/12/11 04:04:26;;;;;;;1.73;0.98;;;20.50;71.70;;;;;;4982634;28;20290;-69
2023/12/11 04:06:53;;;;;;;1.33;0.90;;;20.50;71.50;;;;;;4983824;28;20232;-66
2023/12/11 04:09:21;;;;;;;1.40;0.90;;;20.50;71.60;;;;;;4986096;28;20577;-67
2023/12/11 04:11:48;;;;;;;1.20;0.90;;;20.40;72.40;;;;;;4982986;28;20205;-67
2023/12/11 04:14:14;;;;;;;3.20;1.00;;;20.50;71.60;;;;;;4985533;28;20708;-68
2023/12/11 04:16:42;;;;;;;1.23;0.85;;;20.50;71.50;;;;;;4984690;28;20555;-69
2023/12/11 04:19:10;;;;;;;24.80;2.08;;;20.40;71.80;;;;;;4908889;28;20204;-67
2023/12/11 04:21:37;;;;;;;4.10;1.10;;;20.50;71.90;;;;;;4793326;28;20205;-66
2023/12/11 04:24:04;;;;;;;2.20;1.10;;;20.50;72.40;;;;;;4775082;28;20204;-66
2023/12/11 04:26:32;;;;;;;1.70;0.93;;;20.50;72.60;;;;;;4811521;28;20266;-65
2023/12/11 04:28:59;;;;;;;4.10;0.90;;;20.50;73.00;;;;;;4805684;28;20474;-65
2023/12/11 04:31:26;;;;;;;1.85;1.00;;;20.50;73.10;;;;;;4808304;28;20475;-65
2023/12/11 04:33:53;;;;;;;2.90;0.80;;;20.50;73.10;;;;;;4808779;28;20763;-65
2023/12/11 04:36:19;;;;;;;1.07;0.87;;;20.50;73.40;;;;;;4805000;28;22141;-64
2023/12/11 04:38:46;;;;;;;1.10;0.80;;;20.50;73.50;;;;;;4804814;28;20964;-65
2023/12/11 04:41:13;;;;;;;0.90;0.70;;;20.60;73.70;;;;;;4804852;28;20667;-67
2023/12/11 04:43:41;;;;;;;1.50;0.90;;;20.60;73.90;;;;;;4825160;28;20463;-66
2023/12/11 04:46:08;;;;;;;4.17;1.20;;;20.60;74.00;;;;;;4829837;28;20601;-65
2023/12/11 04:48:35;;;;;;;1.77;1.27;;;20.60;74.00;;;;;;4815565;28;20474;-65
2023/12/11 04:51:02;;;;;;;1.30;0.93;;;20.60;74.00;;;;;;4831597;28;21441;-64
2023/12/11 04:53:28;;;;;;;1.00;0.73;;;20.60;74.20;;;;;;4811574;28;27125;-62
2023/12/11 04:55:55;;;;;;;1.60;0.93;;;20.70;74.30;;;;;;4803951;28;20468;-65
2023/12/11 04:58:22;;;;;;;5.00;0.90;;;20.70;74.20;;;;;;4837270;28;20559;-66
2023/12/11 05:00:50;;;;;;;1.33;0.90;;;20.70;74.20;;;;;;4838758;28;20471;-63
2023/12/11 05:03:17;;;;;;;1.63;0.90;;;20.70;74.20;;;;;;4838858;28;20585;-65
2023/12/11 05:05:43;;;;;;;1.27;0.90;;;20.80;74.20;;;;;;4842967;28;20543;-63
2023/12/11 05:08:10;;;;;;;1.00;0.70;;;20.80;74.50;;;;;;4846077;28;20471;-65
2023/12/11 05:10:37;;;;;;;1.50;1.07;;;20.80;74.00;;;;;;4842222;28;20979;-63
2023/12/11 05:13:03;;;;;;;1.30;0.90;;;20.90;74.20;;;;;;4837959;28;20508;-61
2023/12/11 05:15:30;;;;;;;1.30;0.80;;;20.90;74.10;;;;;;4836493;28;20455;-65
2023/12/11 05:17:58;;;;;;;1.37;0.70;;;20.90;74.10;;;;;;4840789;28;20468;-66
2023/12/11 05:20:25;;;;;;;1.10;0.83;;;20.90;74.00;;;;;;4841031;28;20599;-66
2023/12/11 05:22:52;;;;;;;1.70;1.00;;;20.90;73.90;;;;;;4842759;28;20463;-65
2023/12/11 05:25:19;;;;;;;1.30;0.93;;;21.00;74.20;;;;;;4840153;28;20470;-68
2023/12/11 05:27:46;;;;;;;1.40;0.93;;;21.00;74.10;;;;;;4845113;28;20541;-64
2023/12/11 05:30:13;;;;;;;1.00;0.70;;;21.00;74.10;;;;;;4841179;28;20463;-67
2023/12/11 05:32:41;;;;;;;1.53;0.80;;;21.00;73.70;;;;;;4842578;28;20470;-68
2023/12/11 05:35:09;;;;;;;2.27;0.70;;;21.00;74.00;;;;;;4832572;28;27389;-64
2023/12/11 05:37:36;;;;;;;1.30;0.80;;;21.00;74.00;;;;;;4834680;28;20461;-62
2023/12/11 05:40:03;;;;;;;1.00;0.70;;;21.10;74.00;;;;;;4837636;28;20463;-64
2023/12/11 05:42:30;;;;;;;1.40;0.90;;;21.10;74.20;;;;;;4844102;28;20463;-65
2023/12/11 05:44:56;;;;;;;1.97;0.90;;;21.10;74.10;;;;;;4842512;28;26730;-67
2023/12/11 05:47:23;;;;;;;1.17;0.77;;;21.10;74.10;;;;;;4833027;28;20480;-67
2023/12/11 05:49:50;;;;;;;2.70;0.70;;;21.10;74.00;;;;;;4832715;28;21799;-66
2023/12/11 05:52:18;;;;;;;1.73;1.00;;;21.10;74.10;;;;;;4833231;28;20479;-64
2023/12/11 05:54:45;;;;;;;1.30;0.70;;;21.10;74.10;;;;;;4986611;28;20469;-63
2023/12/11 05:57:12;;;;;;;0.90;0.70;;;21.10;74.10;;;;;;4988035;28;20475;-71
2023/12/11 05:59:38;;;;;;;1.20;0.70;;;21.10;73.90;;;;;;4987270;28;20213;-69
2023/12/11 06:02:05;;;;;;;1.00;0.80;;;21.10;74.00;;;;;;4980820;28;21365;-72
2023/12/11 06:04:32;;;;;;;1.00;0.70;;;21.20;74.00;;;;;;4989875;28;20487;-66
2023/12/11 06:06:59;;;;;;;1.10;0.73;;;21.20;74.10;;;;;;4989432;28;20499;-66
2023/12/11 06:09:27;;;;;;;1.17;0.90;;;21.20;73.80;;;;;;4986436;28;20456;-66
2023/12/11 06:11:54;;;;;;;1.17;0.87;;;21.20;73.70;;;;;;4986852;28;20973;-65
2023/12/11 06:14:20;;;;;;;1.03;0.77;;;21.20;73.70;;;;;;4985151;28;21062;-64
2023/12/11 06:16:47;;;;;;;1.13;0.80;;;21.20;73.60;;;;;;4985615;28;20491;-64
2023/12/11 06:19:14;;;;;;;1.73;0.70;;;21.20;73.50;;;;;;4984329;28;20479;-64
2023/12/11 06:21:42;;;;;;;1.00;0.80;;;21.20;73.40;;;;;;4982875;28;20464;-63
2023/12/11 06:24:08;;;;;;;1.17;0.70;;;21.20;73.30;;;;;;4981941;28;20459;-66
2023/12/11 06:26:36;;;;;;;1.50;1.10;;;21.20;73.20;;;;;;4979870;28;20474;-68
2023/12/11 06:29:03;;;;;;;1.03;0.70;;;21.20;73.20;;;;;;4983706;28;20474;-65
2023/12/11 06:31:31;;;;;;;1.87;0.90;;;21.20;73.10;;;;;;4988468;28;20466;-65
2023/12/11 06:33:58;;;;;;;4.43;0.80;;;21.20;73.00;;;;;;4985322;28;20460;-70
2023/12/11 06:36:25;;;;;;;2.03;0.80;;;21.10;73.00;;;;;;4986013;28;20519;-65
2023/12/11 06:38:51;;;;;;;1.77;0.80;;;21.20;73.00;;;;;;4991759;28;20572;-65
2023/12/11 06:41:18;;;;;;;1.00;0.70;;;21.20;73.10;;;;;;4981627;28;21390;-68
2023/12/11 06:43:48;;;;;;;1.33;0.70;;;21.20;73.10;;;;;;4989745;28;20565;-73
2023/12/11 06:46:15;;;;;;;2.30;0.70;;;21.20;73.10;;;;;;4985564;28;21014;-65
2023/12/11 06:48:42;;;;;;;1.20;0.90;;;21.20;73.20;;;;;;4979234;28;21125;-65
2023/12/11 06:51:08;;;;;;;1.20;0.93;;;21.20;73.30;;;;;;4982355;28;21001;-67
2023/12/11 06:53:35;;;;;;;1.33;1.00;;;21.20;73.30;;;;;;4982182;28;20462;-71
2023/12/11 06:56:03;;;;;;;1.80;0.95;;;21.20;73.30;;;;;;4984807;28;20583;-66
2023/12/11 06:58:30;;;;;;;1.40;0.80;;;21.20;73.40;;;;;;4984184;28;20221;-69
2023/12/11 07:00:59;;;;;;;1.43;0.80;;;21.20;73.40;;;;;;4984865;28;20956;-70
2023/12/11 07:03:25;;;;;;;1.00;0.73;;;21.30;73.60;;;;;;4987039;28;20570;-68
2023/12/11 07:05:52;;;;;;;1.40;0.90;;;21.30;73.60;;;;;;4984565;28;20467;-68
2023/12/11 07:08:19;;;;;;;1.33;0.80;;;21.30;73.70;;;;;;4985391;28;20483;-66
2023/12/11 07:10:46;;;;;;;1.33;0.97;;;21.30;73.80;;;;;;4988202;28;20468;-68
2023/12/11 07:13:12;;;;;;;1.13;0.80;;;21.30;73.80;;;;;;4988490;28;20459;-69
2023/12/11 07:15:39;;;;;;;2.90;1.10;;;21.30;73.80;;;;;;4987690;28;20467;-64
2023/12/11 07:18:07;;;;;;;2.70;1.67;;;21.30;72.90;;;;;;4985077;28;20972;-71
2023/12/11 07:20:34;;;;;;;5.63;1.30;;;21.20;71.20;;;;;;4988577;28;21092;-69
2023/12/11 07:23:01;;;;;;;3.13;1.60;;;21.20;70.80;;;;;;4986228;28;20464;-68
2023/12/11 07:25:27;;;;;;;7.50;1.80;;;21.00;69.60;;;;;;4986633;28;20928;-67
2023/12/11 07:27:54;;;;;;;5.67;2.23;;;21.00;69.50;;;;;;4986982;28;20482;-64
2023/12/11 07:30:21;;;;;;;6.50;1.35;;;20.90;68.90;;;;;;4986749;28;20468;-65
2023/12/11 07:32:48;;;;;;;5.10;2.20;;;20.90;68.70;;;;;;4990807;28;20215;-67
2023/12/11 07:35:16;;;;;;;4.47;1.93;;;20.90;68.60;;;;;;4986629;28;20500;-65
2023/12/11 07:37:42;;;;;;;8.40;2.50;;;20.80;68.10;;;;;;4990986;28;20475;-66
2023/12/11 07:40:10;;;;;;;7.30;2.20;;;20.80;67.70;;;;;;4989911;28;20494;-65
2023/12/11 07:42:37;;;;;;;7.15;2.30;;;20.80;67.90;;;;;;4989845;28;20514;-64
2023/12/11 07:45:05;;;;;;;7.38;1.90;;;20.70;67.60;;;;;;4982841;28;21073;-68
2023/12/11 07:47:32;;;;;;;6.60;1.80;;;20.70;67.30;;;;;;4985262;28;20225;-63
2023/12/11 07:49:59;;;;;;;7.47;2.45;;;20.70;67.60;;;;;;4985794;28;20225;-61
2023/12/11 07:52:29;;;;;;;5.40;2.30;;;20.70;67.60;;;;;;4981433;28;21513;-66
2023/12/11 07:54:55;;;;;;;6.78;2.25;;;20.70;67.80;;;;;;4982121;28;20904;-68
2023/12/11 07:57:24;;;;;;;8.73;2.55;;;20.70;67.90;;;;;;4984668;28;20205;-68
2023/12/11 07:59:51;;;;;;;6.30;2.10;;;20.60;68.20;;;;;;4982322;28;20204;-68
2023/12/11 08:02:17;;;;;;;6.27;1.93;;;20.70;68.60;;;;;;4981544;28;20213;-68
2023/12/11 08:04:44;;;;;;;6.15;1.85;;;20.70;68.60;;;;;;4982247;28;20476;-68
2023/12/11 08:07:13;;;;;;;6.22;2.83;;;20.80;68.80;;;;;;4983506;28;20216;-68
2023/12/11 08:09:41;;;;;;;5.00;2.13;;;20.80;68.90;;;;;;4988261;28;20208;-68
2023/12/11 08:12:08;;;;;;;5.75;1.80;;;20.80;68.80;;;;;;4974033;28;20211;-68
2023/12/11 08:14:34;;;;;;;4.45;1.63;;;20.80;68.70;;;;;;4979502;28;20204;-68
2023/12/11 08:17:01;;;;;;;4.43;1.80;;;20.80;68.90;;;;;;4981691;28;20199;-68
2023/12/11 08:19:28;;;;;;;6.00;2.33;;;20.80;68.80;;;;;;4986919;28;20472;-68
2023/12/11 08:21:54;;;;;;;4.47;2.63;;;20.80;68.80;;;;;;4985942;28;20574;-68
2023/12/11 08:24:21;;;;;;;3.53;1.45;;;20.80;68.90;;;;;;4985991;28;20214;-69
2023/12/11 08:26:49;;;;;;;3.17;1.80;;;20.80;68.90;;;;;;4983736;28;20197;-68
2023/12/11 08:29:16;;;;;;;5.45;2.35;;;20.80;69.00;;;;;;4986574;28;20225;-68
2023/12/11 08:31:43;;;;;;;4.88;1.98;;;20.80;69.00;;;;;;4984189;28;20229;-68
2023/12/11 08:34:09;;;;;;;4.90;2.38;;;20.80;69.00;;;;;;4983790;28;20200;-68
2023/12/11 08:36:36;;;;;;;5.32;1.73;;;20.80;69.00;;;;;;4981975;28;20197;-68
2023/12/11 08:39:03;;;;;;;7.93;1.80;;;20.80;69.10;;;;;;4982806;28;20212;-68
2023/12/11 08:41:30;;;;;;;3.53;1.58;;;20.80;69.10;;;;;;4986177;28;20589;-68
2023/12/11 08:43:58;;;;;;;2.97;1.75;;;20.80;69.20;;;;;;4985768;28;20882;-68
2023/12/11 08:46:25;;;;;;;5.20;1.75;;;20.70;69.10;;;;;;4990388;28;20208;-68
2023/12/11 08:48:52;;;;;;;3.47;2.17;;;20.70;69.20;;;;;;4980859;28;20221;-67
2023/12/11 08:51:19;;;;;;;7.75;1.40;;;20.70;69.20;;;;;;4983284;28;20833;-67
2023/12/11 08:53:46;;;;;;;8.00;1.60;;;20.70;69.60;;;;;;4982034;28;20197;-69
2023/12/11 08:56:13;;;;;;;26.38;3.25;;;20.70;69.60;;;;;;4976691;28;20229;-66
2023/12/11 08:58:40;;;;;;;3.88;2.00;;;20.70;70.00;;;;;;4985989;28;20200;-68
2023/12/11 09:01:08;;;;;;;4.45;1.60;;;20.60;70.00;;;;;;4980175;28;21112;-68
2023/12/11 09:03:35;;;;;;;3.70;1.30;;;20.60;70.60;;;;;;4982975;28;20212;-69
2023/12/11 09:06:02;;;;;;;7.40;1.67;;;20.70;71.20;;;;;;4984326;28;20196;-73
2023/12/11 09:08:29;;;;;;;2.72;1.67;;;20.60;71.30;;;;;;4985541;28;20708;-72
2023/12/11 09:10:56;;;;;;;4.20;1.80;;;20.60;71.40;;;;;;4989823;28;20200;-70
2023/12/11 09:13:22;;;;;;;5.72;1.88;;;20.70;71.80;;;;;;4989468;28;20224;-70
2023/12/11 09:15:49;;;;;;;8.93;1.52;;;20.70;72.20;;;;;;4987103;28;20283;-64
2023/12/11 09:18:17;;;;;;;5.00;1.60;;;20.70;72.10;;;;;;4985321;28;20237;-66
2023/12/11 09:20:44;;;;;;;5.60;1.45;;;20.70;72.20;;;;;;4982031;28;20221;-68
2023/12/11 09:23:11;;;;;;;5.05;1.67;;;20.70;72.30;;;;;;4987495;28;20205;-72
2023/12/11 09:25:38;;;;;;;2.70;1.83;;;20.70;72.40;;;;;;4986835;28;20287;-74
2023/12/11 09:28:05;;;;;;;7.28;1.60;;;20.70;72.30;;;;;;4979659;28;20213;-68
2023/12/11 09:30:32;;;;;;;5.32;1.40;;;20.70;72.30;;;;;;4987813;28;20629;-67
2023/12/11 09:32:58;;;;;;;7.75;1.67;;;20.70;72.50;;;;;;4986900;28;20745;-67
2023/12/11 09:35:27;;;;;;;3.33;1.33;;;20.80;72.50;;;;;;4979912;28;20204;-67
2023/12/11 09:37:54;;;;;;;6.50;2.30;;;20.70;72.40;;;;;;4977014;28;20208;-67
2023/12/11 09:40:21;;;;;;;2.63;0.90;;;20.70;72.20;;;;;;4983488;28;20197;-67
2023/12/11 09:42:50;;;;;;;3.15;1.38;;;20.70;72.30;;;;;;4979904;28;20924;-67
2023/12/11 09:45:21;;;;;;;3.15;1.30;;;20.70;72.30;;;;;;4971105;28;20230;-67
2023/12/11 09:47:50;;;;;;;3.95;1.50;;;20.70;72.30;;;;;;4980322;28;20351;-67
2023/12/11 09:50:18;;;;;;;1.77;1.20;;;20.70;72.30;;;;;;4979951;28;20204;-67
2023/12/11 09:52:46;;;;;;;2.30;1.23;;;20.70;72.10;;;;;;4983614;28;20200;-68
2023/12/11 09:55:13;;;;;;;1.60;1.13;;;20.70;72.10;;;;;;4978754;28;20197;-67
2023/12/11 09:57:41;;;;;;;6.28;1.60;;;20.70;72.00;;;;;;4981801;28;20220;-68
2023/12/11 10:00:10;;;;;;;6.90;1.65;;;20.70;71.80;;;;;;4982519;28;20193;-67
2023/12/11 10:02:38;;;;;;;4.20;1.13;;;20.70;71.70;;;;;;4984484;28;20724;-67
2023/12/11 10:05:08;;;;;;;2.55;1.27;;;20.70;71.80;;;;;;4973940;28;20938;-67
2023/12/11 10:07:36;;;;;;;2.42;1.75;;;20.70;72.10;;;;;;4985786;28;20217;-67
2023/12/11 10:10:22;;;;;;;4.38;2.00;;;20.60;71.90;;;;;;4984014;28;20661;-66
2023/12/11 10:12:50;;;;;;;2.00;1.08;;;20.60;71.70;;;;;;4988615;28;20213;-67
2023/12/11 10:15:21;;;;;;;3.22;1.30;;;20.60;71.80;;;;;;4987798;28;20204;-67
2023/12/11 10:17:59;;;;;;;3.20;1.20;;;20.60;71.70;;;;;;4988032;28;20200;-66
2023/12/11 10:20:26;;;;;;;1.60;1.20;;;20.60;71.70;;;;;;4992182;28;20200;-67
2023/12/11 10:22:52;;;;;;;2.22;1.10;;;20.60;71.50;;;;;;4985921;28;20197;-68
2023/12/11 10:25:26;;;;;;;3.67;1.30;;;20.60;71.80;;;;;;4991378;28;20666;-70
2023/12/11 10:28:05;;;;;;;9.90;2.20;;;20.60;71.80;;;;;;4985740;28;20216;-71
2023/12/11 10:30:32;;;;;;;9.30;2.05;;;20.60;71.50;;;;;;4990370;28;20212;-70
2023/12/11 10:33:01;;;;;;;5.90;1.60;;;20.60;70.70;;;;;;4991372;28;20212;-74
2023/12/11 10:35:28;;;;;;;7.85;2.40;;;20.60;70.80;;;;;;4986172;28;20233;-73
2023/12/11 10:38:00;;;;;;;6.72;2.13;;;20.50;69.60;;;;;;4986425;28;20230;-73
2023/12/11 10:40:38;;;;;;;2.53;1.58;;;20.50;69.10;;;;;;4993212;28;20288;-71
2023/12/11 10:43:05;;;;;;;2.60;1.30;;;20.40;68.40;;;;;;4980760;28;20661;-70
2023/12/11 10:45:32;;;;;;;6.80;2.17;;;20.40;68.40;;;;;;4991823;28;20708;-70
2023/12/11 10:48:00;;;;;;;5.13;1.58;;;20.20;68.20;;;;;;4988070;28;20196;-70
2023/12/11 10:50:27;;;;;;;2.95;1.20;;;20.20;68.60;;;;;;4991100;28;20205;-70
2023/12/11 10:52:54;;;;;;;4.10;1.50;;;20.20;69.40;;;;;;4991293;28;20203;-69
2023/12/11 10:55:21;;;;;;;2.90;1.35;;;20.20;69.30;;;;;;4990283;28;20323;-69
2023/12/11 10:57:51;;;;;;;4.07;1.30;;;20.30;69.50;;;;;;4985689;28;20207;-69
2023/12/11 11:00:20;;;;;;;7.85;2.15;;;20.30;69.40;;;;;;4990608;28;20220;-70
2023/12/11 11:02:51;;;;;;;4.85;1.63;;;20.30;69.50;;;;;;4993080;28;20207;-69
2023/12/11 11:05:19;;;;;;;3.55;1.88;;;20.30;69.40;;;;;;4989997;28;20247;-67
2023/12/11 11:07:53;;;;;;;3.35;1.35;;;20.30;69.40;;;;;;4994003;28;20192;-67
2023/12/11 11:10:21;;;;;;;4.40;1.33;;;20.30;70.20;;;;;;4986879;28;20207;-66
2023/12/11 11:12:57;;;;;;;4.70;1.77;;;20.30;69.40;;;;;;4988347;28;20197;-67
2023/12/11 11:15:24;;;;;;;4.40;1.85;;;20.30;69.50;;;;;;4982043;28;20208;-67
2023/12/11 11:17:58;;;;;;;4.25;1.40;;;20.30;69.40;;;;;;4980614;28;20197;-69
2023/12/11 11:20:26;;;;;;;3.22;1.60;;;20.30;69.50;;;;;;4979015;28;20418;-67
2023/12/11 11:22:53;;;;;;;2.60;1.33;;;20.20;69.60;;;;;;4981960;28;20797;-67
2023/12/11 11:25:33;;;;;;;3.22;1.58;;;20.20;69.60;;;;;;4984234;28;20197;-68
2023/12/11 11:28:01;;;;;;;2.90;1.35;;;20.20;69.60;;;;;;4980355;28;20223;-66
2023/12/11 11:30:51;;;;;;;3.90;1.48;;;20.20;69.70;;;;;;4985714;28;20227;-69
2023/12/11 11:33:19;;;;;;;3.15;2.00;;;20.20;69.60;;;;;;4979920;28;20243;-67
2023/12/11 11:35:53;;;;;;;2.00;1.30;;;20.20;69.50;;;;;;4980414;28;20339;-67
2023/12/11 11:38:21;;;;;;;3.40;1.30;;;20.20;69.50;;;;;;4983713;28;20207;-67
2023/12/11 11:40:51;;;;;;;2.92;1.30;;;20.20;69.50;;;;;;4985111;28;20208;-66
2023/12/11 11:43:19;;;;;;;4.10;1.35;;;20.20;69.60;;;;;;4984067;28;20281;-67
2023/12/11 11:45:46;;;;;;;3.28;0.90;;;20.20;69.60;;;;;;4983464;28;20602;-66
2023/12/11 11:48:12;;;;;;;1.85;0.90;;;20.20;69.70;;;;;;4977052;28;20208;-67
2023/12/11 11:50:53;;;;;;;3.08;1.35;;;20.20;70.10;;;;;;4976849;28;20196;-66
2023/12/11 11:53:21;;;;;;;2.33;1.30;;;20.10;70.00;;;;;;4984368;28;20204;-66
2023/12/11 11:55:48;;;;;;;2.38;1.45;;;20.10;69.90;;;;;;4983482;28;20293;-66
2023/12/11 11:58:15;;;;;;;6.68;1.30;;;20.10;70.00;;;;;;4983261;28;20196;-69
2023/12/11 12:00:45;;;;;;;6.55;1.45;;;20.10;70.10;;;;;;4978381;28;20201;-68
2023/12/11 12:03:12;;;;;;;7.22;1.45;;;20.10;70.00;;;;;;4981599;28;20220;-67
2023/12/11 12:05:52;;;;;;;4.90;1.25;;;20.00;69.90;;;;;;4981917;28;20205;-68
2023/12/11 12:08:19;;;;;;;2.85;1.08;;;20.10;69.80;;;;;;4982312;28;20794;-70
2023/12/11 12:10:46;;;;;;;1.90;1.00;;;20.00;69.90;;;;;;4984621;28;20633;-67
2023/12/11 12:13:12;;;;;;;3.92;1.35;;;20.00;70.00;;;;;;4980164;28;20212;-66
2023/12/11 12:15:44;;;;;;;1.73;1.15;;;20.00;70.00;;;;;;4984905;28;20212;-67
2023/12/11 12:18:12;;;;;;;3.22;1.35;;;20.00;69.90;;;;;;4982614;28;20196;-68
2023/12/11 12:20:39;;;;;;;3.00;1.40;;;20.00;70.10;;;;;;4980398;28;20204;-68
2023/12/11 12:23:06;;;;;;;1.92;1.40;;;20.00;70.00;;;;;;4984455;28;20208;-67
2023/12/11 12:25:34;;;;;;;2.40;1.50;;;20.00;70.00;;;;;;4986334;28;20201;-69
2023/12/11 12:28:05;;;;;;;1.98;1.27;;;20.00;69.90;;;;;;4983389;28;20201;-66
2023/12/11 12:30:32;;;;;;;2.75;1.30;;;20.00;70.10;;;;;;4985026;28;20275;-67
2023/12/11 12:33:03;;;;;;;2.72;1.38;;;20.00;70.20;;;;;;4983187;28;20247;-69
2023/12/11 12:35:30;;;;;;;4.05;1.45;;;19.90;70.00;;;;;;4986824;28;20204;-66
2023/12/11 12:37:58;;;;;;;2.90;1.42;;;19.90;70.00;;;;;;4987426;28;20205;-66
2023/12/11 12:40:24;;;;;;;3.88;1.40;;;19.90;70.40;;;;;;4984935;28;20487;-65
2023/12/11 12:42:51;;;;;;;3.15;1.30;;;19.90;70.10;;;;;;4987735;28;20190;-68
2023/12/11 12:45:25;;;;;;;5.10;2.15;;;19.90;70.30;;;;;;4985353;28;20200;-65
2023/12/11 12:47:52;;;;;;;9.70;1.05;;;19.90;71.50;;;;;;4988798;28;20263;-69
2023/12/11 12:50:21;;;;;;;2.47;1.30;;;19.90;72.20;;;;;;4976739;28;20232;-67